Mount Shasta, California
Current Conditions -  °F | °C
As of 1:56 AM on Thursday 23 Oct 2014 (Local Time) from KMHS Reporting Station
Light Rain Light Rain  
Wind Chill: 47°   Ceiling: 5500
Heat Index: 49°   Visibility: 10mi
Dew Point: 45°   Wind: 5mph
Humidity: 86%   Direction: NA
Pressure: 30.05"   Gusts: NA
Location:  41.31°N, 122.31°W
Report Text: KMHS 230856Z AUTO VRB04KT 10SM -RA SCT030 OVC055 09/07 A3005 RMK AO2 SLP183 P0003 60006 T00940072 55005
Loading
Personal Weather Stations






























Interactive Weather Map
Tropical Storm Tracking
New forecast layout! Learn more

10-Day Weather Forecast

Advertisements
Track Severe Weather on mobile